createdAt,value
2023-03-15T00:00:19.034Z,0.59
2023-03-15T00:01:18.987Z,0.55
2023-03-15T00:02:18.992Z,0.46
2023-03-15T00:03:18.980Z,0.37
2023-03-15T00:04:18.967Z,0.31
2023-03-15T00:05:18.994Z,0.19
2023-03-15T00:06:18.947Z,0.10
2023-03-15T00:07:18.932Z,0.03
2023-03-15T00:08:18.899Z,-0.03
2023-03-15T00:09:18.898Z,-0.11
2023-03-15T00:10:18.922Z,-0.10
2023-03-15T00:11:18.886Z,-0.11
2023-03-15T00:12:18.864Z,-0.14
2023-03-15T00:13:18.856Z,-0.15
2023-03-15T00:14:18.862Z,-0.15
2023-03-15T00:15:18.849Z,-0.21
2023-03-15T00:16:18.974Z,-0.28
2023-03-15T00:17:18.828Z,-0.29
2023-03-15T00:18:18.798Z,-0.32
2023-03-15T00:19:18.774Z,-0.34
2023-03-15T00:20:18.818Z,-0.36
2023-03-15T00:21:18.772Z,-0.39
2023-03-15T00:22:18.791Z,-0.41
2023-03-15T00:23:18.750Z,-0.46
2023-03-15T00:24:18.756Z,-0.52
2023-03-15T00:25:18.735Z,-0.53
2023-03-15T00:26:18.718Z,-0.56
2023-03-15T00:27:18.689Z,-0.47
2023-03-15T00:28:18.701Z,-0.41
2023-03-15T00:29:18.655Z,-0.36
2023-03-15T00:30:18.722Z,-0.23
2023-03-15T00:31:18.664Z,-0.17
2023-03-15T00:32:18.642Z,-0.18
2023-03-15T00:33:18.605Z,-0.17
2023-03-15T00:34:18.632Z,-0.18
2023-03-15T00:35:18.640Z,-0.18
2023-03-15T00:36:18.616Z,-0.17
2023-03-15T00:37:18.581Z,-0.15
2023-03-15T00:38:18.592Z,-0.14
2023-03-15T00:39:18.561Z,-0.17
2023-03-15T00:40:18.585Z,-0.20
2023-03-15T00:41:18.551Z,-0.21
2023-03-15T00:42:18.549Z,-0.26
2023-03-15T00:43:18.522Z,-0.29
2023-03-15T00:44:18.507Z,-0.39
2023-03-15T00:45:18.515Z,-0.47
2023-03-15T00:46:18.558Z,-0.52
2023-03-15T00:47:18.468Z,-0.61
2023-03-15T00:48:18.480Z,-0.67
2023-03-15T00:49:18.466Z,-0.71
2023-03-15T00:50:18.485Z,-0.74
2023-03-15T00:51:18.438Z,-0.78
2023-03-15T00:52:18.431Z,-0.82
2023-03-15T00:53:18.408Z,-0.77
2023-03-15T00:54:18.408Z,-0.74
2023-03-15T00:55:18.419Z,-0.71
2023-03-15T00:56:18.400Z,-0.59
2023-03-15T00:57:18.362Z,-0.56
2023-03-15T00:58:18.364Z,-0.53
2023-03-15T00:59:18.329Z,-0.53
2023-03-15T01:00:18.360Z,-0.53
2023-03-15T01:01:18.449Z,-0.56
2023-03-15T01:02:18.341Z,-0.59
2023-03-15T01:03:18.302Z,-0.61
2023-03-15T01:04:18.278Z,-0.61
2023-03-15T01:05:18.301Z,-0.67
2023-03-15T01:06:18.275Z,-0.74
2023-03-15T01:07:18.251Z,-0.78
2023-03-15T01:08:18.244Z,-0.80
2023-03-15T01:09:18.216Z,-0.82
2023-03-15T01:10:18.235Z,-0.83
2023-03-15T01:11:18.207Z,-0.85
2023-03-15T01:12:18.212Z,-0.82
2023-03-15T01:13:18.174Z,-0.85
2023-03-15T01:14:18.197Z,-0.89
2023-03-15T01:15:18.175Z,-0.86
2023-03-15T01:16:18.210Z,-0.82
2023-03-15T01:17:18.125Z,-0.78
2023-03-15T01:18:18.142Z,-0.75
2023-03-15T01:19:18.108Z,-0.77
2023-03-15T01:20:18.133Z,-0.77
2023-03-15T01:21:18.094Z,-0.75
2023-03-15T01:22:18.077Z,-0.72
2023-03-15T01:23:18.084Z,-0.72
2023-03-15T01:24:18.057Z,-0.74
2023-03-15T01:25:18.076Z,-0.71
2023-03-15T01:26:18.058Z,-0.72
2023-03-15T01:27:18.040Z,-0.77
2023-03-15T01:28:17.999Z,-0.85
2023-03-15T01:29:18.017Z,-0.93
2023-03-15T01:30:18.020Z,-0.97
2023-03-15T01:31:18.056Z,-1.01
2023-03-15T01:32:17.981Z,-1.05
2023-03-15T01:33:17.961Z,-1.12
2023-03-15T01:34:17.967Z,-1.15
2023-03-15T01:35:17.964Z,-1.17
2023-03-15T01:36:17.951Z,-1.17
2023-03-15T01:37:17.928Z,-1.19
2023-03-15T01:38:17.922Z,-1.15
2023-03-15T01:39:17.906Z,-1.15
2023-03-15T01:40:17.923Z,-1.20
2023-03-15T01:41:17.867Z,-1.23
2023-03-15T01:42:17.852Z,-1.25
2023-03-15T01:43:17.877Z,-1.25
2023-03-15T01:44:17.846Z,-1.27
2023-03-15T01:45:17.922Z,-1.27
2023-03-15T01:46:17.935Z,-1.26
2023-03-15T01:47:17.823Z,-1.20
2023-03-15T01:48:17.782Z,-1.15
2023-03-15T01:49:17.772Z,-1.09
2023-03-15T01:50:17.796Z,-1.09
2023-03-15T01:51:17.762Z,-1.07
2023-03-15T01:52:17.777Z,-1.04
2023-03-15T01:53:17.739Z,-1.05
2023-03-15T01:54:17.751Z,-1.07
2023-03-15T01:55:17.763Z,-1.04
2023-03-15T01:56:17.716Z,-1.09
2023-03-15T01:57:17.697Z,-1.12
2023-03-15T01:58:17.695Z,-1.17
2023-03-15T01:59:17.667Z,-1.19
2023-03-15T02:00:17.711Z,-1.23
2023-03-15T02:01:17.675Z,-1.23
2023-03-15T02:02:17.694Z,-1.25
2023-03-15T02:03:17.624Z,-1.25
2023-03-15T02:04:17.633Z,-1.30
2023-03-15T02:05:17.645Z,-1.32
2023-03-15T02:06:17.594Z,-1.30
2023-03-15T02:07:17.607Z,-1.30
2023-03-15T02:08:17.581Z,-1.30
2023-03-15T02:09:17.585Z,-1.27
2023-03-15T02:10:17.583Z,-1.26
2023-03-15T02:11:17.559Z,-1.35
2023-03-15T02:12:17.535Z,-1.33
2023-03-15T02:13:17.522Z,-1.37
2023-03-15T02:14:17.526Z,-1.26
2023-03-15T02:15:17.544Z,-1.22
2023-03-15T02:16:17.566Z,-1.23
2023-03-15T02:17:17.468Z,-1.23
2023-03-15T02:18:17.485Z,-1.27
2023-03-15T02:19:17.441Z,-1.25
2023-03-15T02:20:17.483Z,-1.26
2023-03-15T02:21:17.432Z,-1.23
2023-03-15T02:22:17.433Z,-1.26
2023-03-15T02:23:17.419Z,-1.27
2023-03-15T02:24:17.414Z,-1.32
2023-03-15T02:25:17.424Z,-1.38
2023-03-15T02:26:17.374Z,-1.40
2023-03-15T02:27:17.417Z,-1.41
2023-03-15T02:28:17.369Z,-1.44
2023-03-15T02:29:17.352Z,-1.46
2023-03-15T02:30:17.385Z,-1.44
2023-03-15T02:31:17.361Z,-1.44
2023-03-15T02:32:17.323Z,-1.40
2023-03-15T02:33:17.346Z,-1.33
2023-03-15T02:34:17.292Z,-1.37
2023-03-15T02:35:17.322Z,-1.38
2023-03-15T02:36:17.283Z,-1.43
2023-03-15T02:37:17.285Z,-1.41
2023-03-15T02:38:17.256Z,-1.46
2023-03-15T02:39:17.266Z,-1.50
2023-03-15T02:40:17.270Z,-1.51
2023-03-15T02:41:17.226Z,-1.50
2023-03-15T02:42:17.220Z,-1.51
2023-03-15T02:43:17.215Z,-1.53
2023-03-15T02:44:17.202Z,-1.53
2023-03-15T02:45:17.217Z,-1.59
2023-03-15T02:46:17.211Z,-1.62
2023-03-15T02:47:17.181Z,-1.65
2023-03-15T02:48:17.143Z,-1.65
2023-03-15T02:49:17.117Z,-1.66
2023-03-15T02:50:17.144Z,-1.64
2023-03-15T02:51:17.130Z,-1.65
2023-03-15T02:52:17.103Z,-1.68
2023-03-15T02:53:17.092Z,-1.71
2023-03-15T02:54:17.076Z,-1.69
2023-03-15T02:55:17.096Z,-1.72
2023-03-15T02:56:17.067Z,-1.74
2023-03-15T02:57:17.064Z,-1.72
2023-03-15T02:58:17.042Z,-1.74
2023-03-15T02:59:17.038Z,-1.74
2023-03-15T03:00:17.084Z,-1.72
2023-03-15T03:01:17.179Z,-1.72
2023-03-15T03:02:17.043Z,-1.71
2023-03-15T03:03:16.984Z,-1.69
2023-03-15T03:04:16.982Z,-1.71
2023-03-15T03:05:17.000Z,-1.71
2023-03-15T03:06:16.966Z,-1.71
2023-03-15T03:07:16.938Z,-1.71
2023-03-15T03:08:16.937Z,-1.74
2023-03-15T03:09:16.918Z,-1.76
2023-03-15T03:10:16.949Z,-1.79
2023-03-15T03:11:16.890Z,-1.77
2023-03-15T03:12:16.877Z,-1.77
2023-03-15T03:13:16.876Z,-1.77
2023-03-15T03:14:16.875Z,-1.72
2023-03-15T03:15:16.888Z,-1.74
2023-03-15T03:16:16.868Z,-1.74
2023-03-15T03:17:16.852Z,-1.74
2023-03-15T03:18:16.857Z,-1.71
2023-03-15T03:19:16.789Z,-1.72
2023-03-15T03:20:16.818Z,-1.74
2023-03-15T03:21:16.774Z,-1.79
2023-03-15T03:22:16.782Z,-1.82
2023-03-15T03:23:16.807Z,-1.83
2023-03-15T03:24:16.755Z,-1.86
2023-03-15T03:25:16.784Z,-1.87
2023-03-15T03:26:16.994Z,-1.87
2023-03-15T03:27:16.722Z,-1.94
2023-03-15T03:28:16.707Z,-2.00
2023-03-15T03:29:16.946Z,-2.01
2023-03-15T03:30:16.721Z,-2.04
2023-03-15T03:31:16.707Z,-2.07
2023-03-15T03:32:16.676Z,-2.05
2023-03-15T03:33:16.637Z,-2.00
2023-03-15T03:34:16.668Z,-1.90
2023-03-15T03:35:16.690Z,-1.83
2023-03-15T03:36:16.622Z,-1.80
2023-03-15T03:37:16.613Z,-1.76
2023-03-15T03:38:16.613Z,-1.77
2023-03-15T03:39:16.605Z,-1.80
2023-03-15T03:40:16.619Z,-1.80
2023-03-15T03:41:16.568Z,-1.80
2023-03-15T03:42:16.553Z,-1.79
2023-03-15T03:43:16.552Z,-1.79
2023-03-15T03:44:16.552Z,-1.83
2023-03-15T03:45:16.548Z,-1.87
2023-03-15T03:46:16.538Z,-1.89
2023-03-15T03:47:16.500Z,-1.92
2023-03-15T03:48:16.496Z,-1.95
2023-03-15T03:49:16.482Z,-2.00
2023-03-15T03:50:16.513Z,-2.02
2023-03-15T03:51:16.438Z,-2.04
2023-03-15T03:52:16.439Z,-2.04
2023-03-15T03:53:16.416Z,-2.01
2023-03-15T03:54:17.689Z,-1.97
2023-03-15T03:55:16.458Z,-1.97
2023-03-15T03:56:16.408Z,-1.98
2023-03-15T03:57:16.397Z,-2.00
2023-03-15T03:58:16.392Z,-2.01
2023-03-15T03:59:16.374Z,-2.04
2023-03-15T04:00:16.390Z,-2.04
2023-03-15T04:01:16.347Z,-2.04
2023-03-15T04:02:16.367Z,-2.05
2023-03-15T04:03:16.371Z,-2.05
2023-03-15T04:04:16.351Z,-2.00
2023-03-15T04:05:16.327Z,-1.98
2023-03-15T04:06:16.290Z,-1.95
2023-03-15T04:07:17.157Z,-1.94
2023-03-15T04:08:16.279Z,-1.98
2023-03-15T04:09:16.246Z,-2.01
2023-03-15T04:10:16.277Z,-2.02
2023-03-15T04:11:16.227Z,-2.05
2023-03-15T04:12:16.263Z,-2.18
2023-03-15T04:13:16.216Z,-2.21
2023-03-15T04:14:16.217Z,-2.26
2023-03-15T04:15:16.239Z,-2.28
2023-03-15T04:16:16.243Z,-2.25
2023-03-15T04:17:16.163Z,-2.26
2023-03-15T04:18:16.175Z,-2.28
2023-03-15T04:19:16.150Z,-2.30
2023-03-15T04:20:16.174Z,-2.32
2023-03-15T04:21:16.133Z,-2.41
2023-03-15T04:22:16.108Z,-2.44
2023-03-15T04:23:16.093Z,-2.50
2023-03-15T04:24:16.089Z,-2.56
2023-03-15T04:25:16.094Z,-2.60
2023-03-15T04:26:16.068Z,-2.65
2023-03-15T04:27:16.082Z,-2.65
2023-03-15T04:28:16.052Z,-2.66
2023-03-15T04:29:16.040Z,-2.60
2023-03-15T04:30:16.075Z,-2.47
2023-03-15T04:31:16.084Z,-2.37
2023-03-15T04:32:16.012Z,-2.28
2023-03-15T04:33:16.000Z,-2.23
2023-03-15T04:34:15.994Z,-2.19
2023-03-15T04:35:16.033Z,-2.16
2023-03-15T04:36:15.977Z,-2.13
2023-03-15T04:37:15.982Z,-2.15
2023-03-15T04:38:15.944Z,-2.15
2023-03-15T04:39:15.944Z,-2.12
2023-03-15T04:40:15.966Z,-2.15
2023-03-15T04:41:15.914Z,-2.18
2023-03-15T04:42:15.894Z,-2.18
2023-03-15T04:43:15.903Z,-2.18
2023-03-15T04:44:15.891Z,-2.18
2023-03-15T04:45:15.908Z,-2.19
2023-03-15T04:46:15.869Z,-2.19
2023-03-15T04:47:15.862Z,-2.18
2023-03-15T04:48:15.876Z,-2.21
2023-03-15T04:49:15.823Z,-2.21
2023-03-15T04:50:15.828Z,-2.19
2023-03-15T04:51:15.800Z,-2.15
2023-03-15T04:52:15.794Z,-2.13
2023-03-15T04:53:15.797Z,-2.12
2023-03-15T04:54:15.786Z,-2.10
2023-03-15T04:55:15.794Z,-2.10
2023-03-15T04:56:15.730Z,-2.19
2023-03-15T04:57:15.742Z,-2.19
2023-03-15T04:58:15.747Z,-2.19
2023-03-15T04:59:15.727Z,-2.19
2023-03-15T05:00:15.739Z,-2.22
2023-03-15T05:01:15.755Z,-2.19
2023-03-15T05:02:15.737Z,-2.16
2023-03-15T05:03:15.685Z,-2.13
2023-03-15T05:04:15.657Z,-2.12
2023-03-15T05:05:15.690Z,-2.13
2023-03-15T05:06:15.633Z,-2.16
2023-03-15T05:07:15.628Z,-2.23
2023-03-15T05:08:15.616Z,-2.37
2023-03-15T05:09:15.624Z,-2.42
2023-03-15T05:10:15.641Z,-2.42
2023-03-15T05:11:15.604Z,-2.42
2023-03-15T05:12:15.588Z,-2.34
2023-03-15T05:13:15.564Z,-2.28
2023-03-15T05:14:15.559Z,-2.23
2023-03-15T05:15:15.711Z,-2.18
2023-03-15T05:16:15.587Z,-2.13
2023-03-15T05:17:15.530Z,-2.08
2023-03-15T05:18:15.516Z,-2.02
2023-03-15T05:19:15.503Z,-1.94
2023-03-15T05:20:15.529Z,-1.94
2023-03-15T05:21:15.481Z,-1.92
2023-03-15T05:22:15.472Z,-1.95
2023-03-15T05:23:15.599Z,-1.94
2023-03-15T05:24:15.549Z,-1.94
2023-03-15T05:25:15.475Z,-1.92
2023-03-15T05:26:15.418Z,-1.87
2023-03-15T05:27:15.418Z,-1.84
2023-03-15T05:28:15.398Z,-1.82
2023-03-15T05:29:15.417Z,-1.79
2023-03-15T05:30:15.444Z,-1.76
2023-03-15T05:31:15.510Z,-1.77
2023-03-15T05:32:15.360Z,-1.77
2023-03-15T05:33:15.374Z,-1.79
2023-03-15T05:34:15.362Z,-1.80
2023-03-15T05:35:15.382Z,-1.77
2023-03-15T05:36:15.338Z,-1.77
2023-03-15T05:37:15.311Z,-1.79
2023-03-15T05:38:15.313Z,-1.79
2023-03-15T05:39:15.277Z,-1.79
2023-03-15T05:40:15.319Z,-1.79
2023-03-15T05:41:15.260Z,-1.76
2023-03-15T05:42:15.262Z,-1.76
2023-03-15T05:43:15.254Z,-1.76
2023-03-15T05:44:15.218Z,-1.72
2023-03-15T05:45:15.244Z,-1.71
2023-03-15T05:46:15.324Z,-1.71
2023-03-15T05:47:15.197Z,-1.66
2023-03-15T05:48:15.189Z,-1.65
2023-03-15T05:49:15.170Z,-1.61
2023-03-15T05:50:15.221Z,-1.51
2023-03-15T05:51:15.168Z,-1.41
2023-03-15T05:52:15.143Z,-1.32
2023-03-15T05:53:15.128Z,-1.15
2023-03-15T05:54:15.117Z,-0.91
2023-03-15T05:55:15.127Z,-0.68
2023-03-15T05:56:15.077Z,-0.56
2023-03-15T05:57:15.058Z,-0.46
2023-03-15T05:58:15.056Z,-0.38
2023-03-15T05:59:15.070Z,-0.35
2023-03-15T06:00:15.069Z,-0.34
2023-03-15T06:01:15.043Z,-0.13
2023-03-15T06:02:15.048Z,0.22
2023-03-15T06:03:15.079Z,0.60
2023-03-15T06:04:15.024Z,0.77
2023-03-15T06:05:15.057Z,0.92
2023-03-15T06:06:14.966Z,0.96
2023-03-15T06:07:14.989Z,0.87
2023-03-15T06:08:14.951Z,0.77
2023-03-15T06:09:14.959Z,0.87
2023-03-15T06:10:14.998Z,1.19
2023-03-15T06:11:14.938Z,1.30
2023-03-15T06:12:14.916Z,1.42
2023-03-15T06:13:17.822Z,1.67
2023-03-15T06:14:14.872Z,1.89
2023-03-15T06:15:14.939Z,2.07
2023-03-15T06:16:14.962Z,2.14
2023-03-15T06:17:14.872Z,2.28
2023-03-15T06:18:14.868Z,2.44
2023-03-15T06:19:14.858Z,2.60
2023-03-15T06:20:14.888Z,2.80
2023-03-15T06:21:14.821Z,2.92
2023-03-15T06:22:14.798Z,3.04
2023-03-15T06:23:14.811Z,3.26
2023-03-15T06:24:14.783Z,3.25
2023-03-15T06:25:14.816Z,3.11
2023-03-15T06:26:14.766Z,3.23
2023-03-15T06:27:14.777Z,3.68
2023-03-15T06:28:14.762Z,3.80
2023-03-15T06:29:14.736Z,3.77
2023-03-15T06:30:16.949Z,3.98
2023-03-15T06:31:14.880Z,4.31
2023-03-15T06:32:14.690Z,4.63
2023-03-15T06:33:14.679Z,4.50
2023-03-15T06:34:14.672Z,4.05
2023-03-15T06:35:14.721Z,4.13
2023-03-15T06:36:14.659Z,3.76
2023-03-15T06:37:16.353Z,3.70
2023-03-15T06:38:15.617Z,3.45
2023-03-15T06:39:14.631Z,3.78
2023-03-15T06:40:14.646Z,3.92
2023-03-15T06:41:14.623Z,3.87
2023-03-15T06:42:14.586Z,3.78
2023-03-15T06:43:14.601Z,3.84
2023-03-15T06:44:14.562Z,4.12
2023-03-15T06:45:14.602Z,4.42
2023-03-15T06:46:14.642Z,4.77
2023-03-15T06:47:14.532Z,4.67
2023-03-15T06:48:14.523Z,4.45
2023-03-15T06:49:14.494Z,4.82
2023-03-15T06:50:14.539Z,4.70
2023-03-15T06:51:14.468Z,4.67
2023-03-15T06:52:14.493Z,4.17
2023-03-15T06:53:14.460Z,4.45
2023-03-15T06:54:14.456Z,4.31
2023-03-15T06:55:14.453Z,4.32
2023-03-15T06:56:14.414Z,4.80
2023-03-15T06:57:14.402Z,4.73
2023-03-15T06:58:14.416Z,4.93
2023-03-15T06:59:14.413Z,4.74
2023-03-15T07:00:14.440Z,4.80
2023-03-15T07:01:14.486Z,4.92
2023-03-15T07:02:14.368Z,5.12
2023-03-15T07:03:14.346Z,5.26
2023-03-15T07:04:14.332Z,5.25
2023-03-15T07:05:14.413Z,5.36
2023-03-15T07:06:14.350Z,5.08
2023-03-15T07:07:14.308Z,4.99
2023-03-15T07:08:14.296Z,5.08
2023-03-15T07:09:14.305Z,5.14
2023-03-15T07:10:14.330Z,5.30
2023-03-15T07:11:14.276Z,5.65
2023-03-15T07:12:14.256Z,5.26
2023-03-15T07:13:14.255Z,5.33
2023-03-15T07:14:14.208Z,5.33
2023-03-15T07:15:16.101Z,5.54
2023-03-15T07:16:14.272Z,5.76
2023-03-15T07:17:14.197Z,5.61
2023-03-15T07:18:14.220Z,5.64
2023-03-15T07:19:14.158Z,6.26
2023-03-15T07:20:14.195Z,6.38
2023-03-15T07:21:14.171Z,6.46
2023-03-15T07:22:14.179Z,6.49
2023-03-15T07:23:14.147Z,6.42
2023-03-15T07:24:14.098Z,6.17
2023-03-15T07:25:14.128Z,6.62
2023-03-15T07:26:14.078Z,7.20
2023-03-15T07:27:16.134Z,7.28
2023-03-15T07:28:14.061Z,7.28
2023-03-15T07:29:14.072Z,6.79
2023-03-15T07:30:14.102Z,6.57
2023-03-15T07:31:14.073Z,6.60
2023-03-15T07:32:14.073Z,6.44
2023-03-15T07:33:14.049Z,6.27
2023-03-15T07:34:14.006Z,6.36
2023-03-15T07:35:14.045Z,5.61
2023-03-15T07:36:13.981Z,5.26
2023-03-15T07:37:13.991Z,5.36
2023-03-15T07:38:13.961Z,5.20
2023-03-15T07:39:13.957Z,4.70
2023-03-15T07:40:13.977Z,4.60
2023-03-15T07:41:13.908Z,4.41
2023-03-15T07:42:13.915Z,4.50
2023-03-15T07:43:13.894Z,4.55
2023-03-15T07:44:13.886Z,4.80
2023-03-15T07:45:13.940Z,5.68
2023-03-15T07:46:13.924Z,6.11
2023-03-15T07:47:13.846Z,6.07
2023-03-15T07:48:13.859Z,5.80
2023-03-15T07:49:13.835Z,5.33
2023-03-15T07:50:16.835Z,4.82
2023-03-15T07:51:13.833Z,4.48
2023-03-15T07:52:13.791Z,4.32
2023-03-15T07:53:13.804Z,4.20
2023-03-15T07:54:13.786Z,4.13
2023-03-15T07:55:13.786Z,3.99
2023-03-15T07:56:13.737Z,3.94
2023-03-15T07:57:13.728Z,3.91
2023-03-15T07:58:13.721Z,3.91
2023-03-15T07:59:13.715Z,3.87
2023-03-15T08:00:13.747Z,3.94
2023-03-15T08:01:13.725Z,3.98
2023-03-15T08:02:13.746Z,4.06
2023-03-15T08:03:13.705Z,4.06
2023-03-15T08:04:13.656Z,4.10
2023-03-15T08:05:13.696Z,4.17
2023-03-15T08:06:13.630Z,4.22
2023-03-15T08:07:13.608Z,4.28
2023-03-15T08:08:13.593Z,4.35
2023-03-15T08:09:13.610Z,4.40
2023-03-15T08:10:13.636Z,4.41
2023-03-15T08:11:13.584Z,4.45
2023-03-15T08:12:13.583Z,4.52
2023-03-15T08:13:13.574Z,4.53
2023-03-15T08:14:13.549Z,4.66
2023-03-15T08:15:13.555Z,4.63
2023-03-15T08:16:13.580Z,4.68
2023-03-15T08:17:13.523Z,4.74
2023-03-15T08:18:13.489Z,4.86
2023-03-15T08:19:13.532Z,4.78
2023-03-15T08:20:13.490Z,4.78
2023-03-15T08:21:13.457Z,5.02
2023-03-15T08:22:13.454Z,5.51
2023-03-15T08:23:13.455Z,5.79
2023-03-15T08:24:13.496Z,5.62
2023-03-15T08:25:13.483Z,5.84
2023-03-15T08:26:13.383Z,5.84
2023-03-15T08:27:13.398Z,5.68
2023-03-15T08:28:13.365Z,5.59
2023-03-15T08:29:13.382Z,5.57
2023-03-15T08:30:13.380Z,5.44
2023-03-15T08:31:13.393Z,5.28
2023-03-15T08:32:13.336Z,5.25
2023-03-15T08:33:13.336Z,5.23
2023-03-15T08:34:13.302Z,5.26
2023-03-15T08:35:15.705Z,5.44
2023-03-15T08:36:13.378Z,5.71
2023-03-15T08:37:13.297Z,5.71
2023-03-15T08:38:13.270Z,6.26
2023-03-15T08:39:13.246Z,6.19
2023-03-15T08:40:13.274Z,6.67
2023-03-15T08:41:13.242Z,6.88
2023-03-15T08:42:13.230Z,6.85
2023-03-15T08:43:13.216Z,6.92
2023-03-15T08:44:13.226Z,7.47
2023-03-15T08:45:13.259Z,7.33
2023-03-15T08:46:13.226Z,7.43
2023-03-15T08:47:13.174Z,7.43
2023-03-15T08:48:13.151Z,7.36
2023-03-15T08:49:13.161Z,7.24
2023-03-15T08:50:13.178Z,7.53
2023-03-15T08:51:13.144Z,8.00
2023-03-15T08:52:13.116Z,8.36
2023-03-15T08:53:13.122Z,8.60
2023-03-15T08:54:13.093Z,8.95
2023-03-15T08:55:13.136Z,9.32
2023-03-15T08:56:13.069Z,9.89
2023-03-15T08:57:13.040Z,9.40
2023-03-15T08:58:13.038Z,9.66
2023-03-15T08:59:19.428Z,10.13
2023-03-15T09:00:14.056Z,9.95
2023-03-15T09:01:13.006Z,9.74
2023-03-15T09:02:13.034Z,9.97
2023-03-15T09:03:12.996Z,9.80
2023-03-15T09:04:13.063Z,9.74
2023-03-15T09:05:12.995Z,9.62
2023-03-15T09:06:12.960Z,10.53
2023-03-15T09:07:12.956Z,10.89
2023-03-15T09:08:12.944Z,10.76
2023-03-15T09:09:12.907Z,10.64
2023-03-15T09:10:12.934Z,10.48
2023-03-15T09:11:12.876Z,10.51
2023-03-15T09:12:12.894Z,10.48
2023-03-15T09:13:12.884Z,10.34
2023-03-15T09:14:12.868Z,10.02
2023-03-15T09:15:12.910Z,8.78
2023-03-15T09:16:12.879Z,9.04
2023-03-15T09:17:12.877Z,9.21
2023-03-15T09:18:12.799Z,9.80
2023-03-15T09:19:12.803Z,10.26
2023-03-15T09:20:12.827Z,10.74
2023-03-15T09:21:12.780Z,10.74
2023-03-15T09:22:16.913Z,10.44
2023-03-15T09:23:13.771Z,11.14
2023-03-15T09:24:12.826Z,10.84
2023-03-15T09:25:12.794Z,11.23
2023-03-15T09:26:12.733Z,10.76
2023-03-15T09:27:12.708Z,10.22
2023-03-15T09:28:12.701Z,9.40
2023-03-15T09:29:12.686Z,9.28
2023-03-15T09:30:12.735Z,9.83
2023-03-15T09:31:12.713Z,10.78
2023-03-15T09:32:12.681Z,10.94
2023-03-15T09:33:12.682Z,10.02
2023-03-15T09:34:12.655Z,10.33
2023-03-15T09:35:12.661Z,10.71
2023-03-15T09:36:12.614Z,10.01
2023-03-15T09:37:12.617Z,9.08
2023-03-15T09:38:12.603Z,9.21
2023-03-15T09:39:12.573Z,9.06
2023-03-15T09:40:12.604Z,9.72
2023-03-15T09:41:12.563Z,10.46
2023-03-15T09:42:12.559Z,10.26
2023-03-15T09:43:12.551Z,10.57
2023-03-15T09:44:12.555Z,10.30
2023-03-15T09:45:12.531Z,9.74
2023-03-15T09:46:12.521Z,9.39
2023-03-15T09:47:12.508Z,9.54
2023-03-15T09:48:12.479Z,9.14
2023-03-15T09:49:12.484Z,9.48
2023-03-15T09:50:12.519Z,10.28
2023-03-15T09:51:12.454Z,10.67
2023-03-15T09:52:12.443Z,11.52
2023-03-15T09:53:12.459Z,11.45
2023-03-15T09:54:12.439Z,11.05
2023-03-15T09:55:12.492Z,10.56
2023-03-15T09:56:12.397Z,10.38
2023-03-15T09:57:12.362Z,9.94
2023-03-15T09:58:12.357Z,9.43
2023-03-15T09:59:12.339Z,9.13
2023-03-15T10:00:12.385Z,8.87
2023-03-15T10:01:12.412Z,8.55
2023-03-15T10:02:12.336Z,8.56
2023-03-15T10:03:12.389Z,8.18
2023-03-15T10:04:12.309Z,8.16
2023-03-15T10:05:12.329Z,8.00
2023-03-15T10:06:12.279Z,8.06
2023-03-15T10:07:12.273Z,8.05
2023-03-15T10:08:12.267Z,8.08
2023-03-15T10:09:12.253Z,7.79
2023-03-15T10:10:12.220Z,7.63
2023-03-15T10:11:12.280Z,7.36
2023-03-15T10:12:12.217Z,7.33
2023-03-15T10:13:12.208Z,7.00
2023-03-15T10:14:12.210Z,6.89
2023-03-15T10:15:12.169Z,6.72
2023-03-15T10:16:12.322Z,6.82
2023-03-15T10:17:12.194Z,6.82
2023-03-15T10:18:12.171Z,7.02
2023-03-15T10:19:12.145Z,6.99
2023-03-15T10:20:12.147Z,7.24
2023-03-15T10:21:12.144Z,7.35
2023-03-15T10:22:12.086Z,7.23
2023-03-15T10:23:12.090Z,7.06
2023-03-15T10:24:12.129Z,6.92
2023-03-15T10:25:12.067Z,6.88
2023-03-15T10:26:13.333Z,6.89
2023-03-15T10:27:12.048Z,6.93
2023-03-15T10:28:12.018Z,7.00
2023-03-15T10:29:11.996Z,6.92
2023-03-15T10:30:11.993Z,6.51
2023-03-15T10:31:16.273Z,6.45
2023-03-15T10:32:12.999Z,6.54
2023-03-15T10:33:12.015Z,6.62
2023-03-15T10:34:11.994Z,7.02
2023-03-15T10:35:11.976Z,7.13
2023-03-15T10:36:12.035Z,7.50
2023-03-15T10:37:11.925Z,7.70
2023-03-15T10:38:11.916Z,8.26
2023-03-15T10:39:11.898Z,8.71
2023-03-15T10:40:11.873Z,8.56
2023-03-15T10:41:15.259Z,8.66
2023-03-15T10:42:11.881Z,8.58
2023-03-15T10:43:11.834Z,8.61
2023-03-15T10:44:11.832Z,8.61
2023-03-15T10:45:11.814Z,8.09
2023-03-15T10:46:11.936Z,8.23
2023-03-15T10:47:22.447Z,8.48
2023-03-15T10:48:12.782Z,8.61
2023-03-15T10:49:11.806Z,8.61
2023-03-15T10:50:11.779Z,8.37
2023-03-15T10:51:12.617Z,8.10
2023-03-15T10:52:11.767Z,7.82
2023-03-15T10:53:11.744Z,7.48
2023-03-15T10:54:11.727Z,7.40
2023-03-15T10:55:11.725Z,7.50
2023-03-15T10:56:11.747Z,8.27
2023-03-15T10:57:11.690Z,7.85
2023-03-15T10:58:11.678Z,7.76
2023-03-15T10:59:13.083Z,8.06
2023-03-15T11:00:11.652Z,8.26
2023-03-15T11:01:11.694Z,8.71
2023-03-15T11:02:11.658Z,9.13
2023-03-15T11:03:11.660Z,8.48
2023-03-15T11:04:11.611Z,8.24
2023-03-15T11:05:11.601Z,8.10
2023-03-15T11:06:11.607Z,8.00
2023-03-15T11:07:11.572Z,7.82
2023-03-15T11:08:11.573Z,7.54
2023-03-15T11:09:11.547Z,7.58
2023-03-15T11:10:11.544Z,7.85
2023-03-15T11:11:11.579Z,8.38
2023-03-15T11:12:11.527Z,8.97
2023-03-15T11:13:11.506Z,9.10
2023-03-15T11:14:11.481Z,10.09
2023-03-15T11:15:11.487Z,9.98
2023-03-15T11:16:11.610Z,9.46
2023-03-15T11:17:11.513Z,9.31
2023-03-15T11:18:11.475Z,9.04
2023-03-15T11:19:11.423Z,9.03
2023-03-15T11:20:11.432Z,8.91
2023-03-15T11:21:11.462Z,8.63
2023-03-15T11:22:11.418Z,8.55
2023-03-15T11:23:11.379Z,8.49
2023-03-15T11:24:11.386Z,8.66
2023-03-15T11:25:11.366Z,9.00
2023-03-15T11:26:14.098Z,10.26
2023-03-15T11:27:12.357Z,10.57
2023-03-15T11:28:11.330Z,11.45
2023-03-15T11:29:11.299Z,10.99
2023-03-15T11:30:11.302Z,10.41
2023-03-15T11:31:11.402Z,10.38
2023-03-15T11:32:11.308Z,10.76
2023-03-15T11:33:11.279Z,11.26
2023-03-15T11:34:11.278Z,11.90
2023-03-15T11:35:11.248Z,12.46
2023-03-15T11:36:12.440Z,12.50
2023-03-15T11:37:13.112Z,11.80
2023-03-15T11:38:15.198Z,11.88
2023-03-15T11:39:11.207Z,11.68
2023-03-15T11:40:12.596Z,11.08
2023-03-15T11:41:11.211Z,10.49
2023-03-15T11:42:11.331Z,10.23
2023-03-15T11:43:11.186Z,10.01
2023-03-15T11:44:11.158Z,9.10
2023-03-15T11:45:11.141Z,9.98
2023-03-15T11:46:11.302Z,10.69
2023-03-15T11:47:11.145Z,11.25
2023-03-15T11:48:11.124Z,12.22
2023-03-15T11:49:11.096Z,12.83
2023-03-15T11:50:11.096Z,13.46
2023-03-15T11:51:11.124Z,13.62
2023-03-15T11:52:11.078Z,13.56
2023-03-15T11:53:11.051Z,13.67
2023-03-15T11:54:11.049Z,13.16
2023-03-15T11:55:11.039Z,12.47
2023-03-15T11:56:11.116Z,12.03
2023-03-15T11:57:11.033Z,11.14
2023-03-15T11:58:11.001Z,10.57
2023-03-15T11:59:11.004Z,10.25
2023-03-15T12:00:11.000Z,10.12
2023-03-15T12:01:10.980Z,9.74
2023-03-15T12:02:11.150Z,9.43
2023-03-15T12:03:10.952Z,9.11
2023-03-15T12:04:10.932Z,9.03
2023-03-15T12:05:17.965Z,8.73
2023-03-15T12:06:11.945Z,8.58
2023-03-15T12:07:10.891Z,8.44
2023-03-15T12:08:10.926Z,8.18
2023-03-15T12:09:10.871Z,8.05
2023-03-15T12:10:10.905Z,8.01
2023-03-15T12:11:10.877Z,8.06
2023-03-15T12:12:10.846Z,8.05
2023-03-15T12:13:10.886Z,7.93
2023-03-15T12:14:10.815Z,7.97
2023-03-15T12:15:10.808Z,8.18
2023-03-15T12:16:10.882Z,8.37
2023-03-15T12:17:10.788Z,8.42
2023-03-15T12:18:10.792Z,8.37
2023-03-15T12:19:10.750Z,8.38
2023-03-15T12:20:10.781Z,8.27
2023-03-15T12:21:10.771Z,8.08
2023-03-15T12:22:10.752Z,7.98
2023-03-15T12:23:10.714Z,7.93
2023-03-15T12:24:10.717Z,7.91
2023-03-15T12:25:10.691Z,8.01
2023-03-15T12:26:10.735Z,8.10
2023-03-15T12:27:10.680Z,8.31
2023-03-15T12:28:10.681Z,8.49
2023-03-15T12:29:10.634Z,8.46
2023-03-15T12:30:10.627Z,8.45
2023-03-15T12:31:10.672Z,8.61
2023-03-15T12:32:10.624Z,8.61
2023-03-15T12:33:10.585Z,8.55
2023-03-15T12:34:10.599Z,8.49
2023-03-15T12:35:10.562Z,8.33
2023-03-15T12:36:10.626Z,8.10
2023-03-15T12:37:10.569Z,8.01
2023-03-15T12:38:10.542Z,7.93
2023-03-15T12:39:10.527Z,7.76
2023-03-15T12:40:10.519Z,7.63
2023-03-15T12:41:10.545Z,7.36
2023-03-15T12:42:10.500Z,7.23
2023-03-15T12:43:10.517Z,7.17
2023-03-15T12:44:10.458Z,7.06
2023-03-15T12:45:10.446Z,8.12
2023-03-15T12:46:10.485Z,8.34
2023-03-15T12:47:10.431Z,8.16
2023-03-15T12:48:10.430Z,7.93
2023-03-15T12:49:10.435Z,7.76
2023-03-15T12:50:10.423Z,8.08
2023-03-15T12:51:10.539Z,8.33
2023-03-15T12:52:10.400Z,8.31
2023-03-15T12:53:10.360Z,8.41
2023-03-15T12:54:10.369Z,8.37
2023-03-15T12:55:10.375Z,8.31
2023-03-15T12:56:10.377Z,8.15
2023-03-15T12:57:10.353Z,8.03
2023-03-15T12:58:10.305Z,7.79
2023-03-15T12:59:10.327Z,7.57
2023-03-15T13:00:10.280Z,7.50
2023-03-15T13:01:10.362Z,7.45
2023-03-15T13:02:10.247Z,7.45
2023-03-15T13:03:10.294Z,7.45
2023-03-15T13:04:10.237Z,7.38